sensor_id;sensor_type;location;lat;lon;timestamp;temperature;humidity
32097;DHT22;18610;49.916;8.284;2023-06-22T00:02:00;22.50;99.90
32097;DHT22;18610;49.916;8.284;2023-06-22T00:04:27;22.40;99.90
32097;DHT22;18610;49.916;8.284;2023-06-22T00:06:53;22.50;99.90
32097;DHT22;18610;49.916;8.284;2023-06-22T00:09:20;22.50;99.90
32097;DHT22;18610;49.916;8.284;2023-06-22T00:11:47;22.40;99.90
32097;DHT22;18610;49.916;8.284;2023-06-22T00:14:13;22.40;99.90
32097;DHT22;18610;49.916;8.284;2023-06-22T00:16:41;22.40;99.90
32097;DHT22;18610;49.916;8.284;2023-06-22T00:19:09;22.40;99.90
32097;DHT22;18610;49.916;8.284;2023-06-22T00:21:37;22.30;99.90
32097;DHT22;18610;49.916;8.284;2023-06-22T00:24:04;22.30;99.90
32097;DHT22;18610;49.916;8.284;2023-06-22T00:26:32;22.30;99.90
32097;DHT22;18610;49.916;8.284;2023-06-22T00:28:58;22.30;99.90
32097;DHT22;18610;49.916;8.284;2023-06-22T00:31:25;22.30;99.90
32097;DHT22;18610;49.916;8.284;2023-06-22T00:33:53;22.30;99.90
32097;DHT22;18610;49.916;8.284;2023-06-22T00:36:20;22.30;99.90
32097;DHT22;18610;49.916;8.284;2023-06-22T00:38:46;22.30;99.90
32097;DHT22;18610;49.916;8.284;2023-06-22T00:41:16;22.30;99.90
32097;DHT22;18610;49.916;8.284;2023-06-22T00:43:42;22.30;99.90
32097;DHT22;18610;49.916;8.284;2023-06-22T00:46:09;22.20;99.90
32097;DHT22;18610;49.916;8.284;2023-06-22T00:48:36;22.20;99.90
32097;DHT22;18610;49.916;8.284;2023-06-22T00:51:04;22.20;99.90
32097;DHT22;18610;49.916;8.284;2023-06-22T00:53:31;22.20;99.90
32097;DHT22;18610;49.916;8.284;2023-06-22T00:56:00;22.10;99.90
32097;DHT22;18610;49.916;8.284;2023-06-22T00:58:28;22.00;99.90
32097;DHT22;18610;49.916;8.284;2023-06-22T01:00:56;22.00;99.90
32097;DHT22;18610;49.916;8.284;2023-06-22T01:03:23;21.90;99.90
32097;DHT22;18610;49.916;8.284;2023-06-22T01:05:50;21.90;99.90
32097;DHT22;18610;49.916;8.284;2023-06-22T01:08:28;21.90;99.90
32097;DHT22;18610;49.916;8.284;2023-06-22T01:11:03;21.90;99.90
32097;DHT22;18610;49.916;8.284;2023-06-22T01:13:36;21.90;99.90
32097;DHT22;18610;49.916;8.284;2023-06-22T01:16:05;21.90;99.90
32097;DHT22;18610;49.916;8.284;2023-06-22T01:18:35;21.80;99.90
32097;DHT22;18610;49.916;8.284;2023-06-22T01:21:04;21.80;99.90
32097;DHT22;18610;49.916;8.284;2023-06-22T01:23:53;21.80;99.90
32097;DHT22;18610;49.916;8.284;2023-06-22T01:26:33;21.70;99.90
32097;DHT22;18610;49.916;8.284;2023-06-22T01:29:04;21.70;99.90
32097;DHT22;18610;49.916;8.284;2023-06-22T01:31:32;21.60;99.90
32097;DHT22;18610;49.916;8.284;2023-06-22T01:34:02;21.60;99.90
32097;DHT22;18610;49.916;8.284;2023-06-22T01:36:31;21.50;99.90
32097;DHT22;18610;49.916;8.284;2023-06-22T01:38:59;21.50;99.90
32097;DHT22;18610;49.916;8.284;2023-06-22T01:41:28;21.50;99.90
32097;DHT22;18610;49.916;8.284;2023-06-22T01:43:55;21.50;99.90
32097;DHT22;18610;49.916;8.284;2023-06-22T01:46:24;21.50;99.90
32097;DHT22;18610;49.916;8.284;2023-06-22T01:48:51;21.50;99.90
32097;DHT22;18610;49.916;8.284;2023-06-22T01:51:19;21.50;99.90
32097;DHT22;18610;49.916;8.284;2023-06-22T01:53:45;21.50;99.90
32097;DHT22;18610;49.916;8.284;2023-06-22T01:56:14;21.50;99.90
32097;DHT22;18610;49.916;8.284;2023-06-22T01:58:48;21.50;99.90
32097;DHT22;18610;49.916;8.284;2023-06-22T02:01:20;21.50;99.90
32097;DHT22;18610;49.916;8.284;2023-06-22T02:04:01;21.40;99.90
32097;DHT22;18610;49.916;8.284;2023-06-22T02:06:33;21.30;99.90
32097;DHT22;18610;49.916;8.284;2023-06-22T02:09:06;21.30;99.90
32097;DHT22;18610;49.916;8.284;2023-06-22T02:11:35;21.30;99.90
32097;DHT22;18610;49.916;8.284;2023-06-22T02:14:03;21.30;99.90
32097;DHT22;18610;49.916;8.284;2023-06-22T02:16:31;21.30;99.90
32097;DHT22;18610;49.916;8.284;2023-06-22T02:19:01;21.30;99.90
32097;DHT22;18610;49.916;8.284;2023-06-22T02:21:29;21.40;99.90
32097;DHT22;18610;49.916;8.284;2023-06-22T02:23:55;21.40;99.90
32097;DHT22;18610;49.916;8.284;2023-06-22T02:26:23;21.40;99.90
32097;DHT22;18610;49.916;8.284;2023-06-22T02:28:50;21.40;99.90
32097;DHT22;18610;49.916;8.284;2023-06-22T02:31:17;21.30;99.90
32097;DHT22;18610;49.916;8.284;2023-06-22T02:33:43;21.40;99.90
32097;DHT22;18610;49.916;8.284;2023-06-22T02:36:12;21.40;99.90
32097;DHT22;18610;49.916;8.284;2023-06-22T02:38:38;21.30;99.90
32097;DHT22;18610;49.916;8.284;2023-06-22T02:41:05;21.30;99.90
32097;DHT22;18610;49.916;8.284;2023-06-22T02:43:32;21.30;99.90
32097;DHT22;18610;49.916;8.284;2023-06-22T02:45:59;21.30;99.90
32097;DHT22;18610;49.916;8.284;2023-06-22T02:48:25;21.30;99.90
32097;DHT22;18610;49.916;8.284;2023-06-22T02:50:52;21.30;99.90
32097;DHT22;18610;49.916;8.284;2023-06-22T02:53:21;21.30;99.90
32097;DHT22;18610;49.916;8.284;2023-06-22T02:55:48;21.30;99.90
32097;DHT22;18610;49.916;8.284;2023-06-22T02:58:14;21.30;99.90
32097;DHT22;18610;49.916;8.284;2023-06-22T03:00:42;21.30;99.90
32097;DHT22;18610;49.916;8.284;2023-06-22T03:03:08;21.30;99.90
32097;DHT22;18610;49.916;8.284;2023-06-22T03:05:35;21.20;99.90
32097;DHT22;18610;49.916;8.284;2023-06-22T03:08:02;21.20;99.90
32097;DHT22;18610;49.916;8.284;2023-06-22T03:10:30;21.20;99.90
32097;DHT22;18610;49.916;8.284;2023-06-22T03:12:57;21.20;99.90
32097;DHT22;18610;49.916;8.284;2023-06-22T03:15:24;21.10;99.90
32097;DHT22;18610;49.916;8.284;2023-06-22T03:17:51;21.20;99.90
32097;DHT22;18610;49.916;8.284;2023-06-22T03:20:18;21.10;99.90
32097;DHT22;18610;49.916;8.284;2023-06-22T03:22:44;21.10;99.90
32097;DHT22;18610;49.916;8.284;2023-06-22T03:25:11;21.10;99.90
32097;DHT22;18610;49.916;8.284;2023-06-22T03:27:40;21.10;99.90
32097;DHT22;18610;49.916;8.284;2023-06-22T03:30:08;21.00;99.90
32097;DHT22;18610;49.916;8.284;2023-06-22T03:32:35;21.00;99.90
32097;DHT22;18610;49.916;8.284;2023-06-22T03:35:02;20.90;99.90
32097;DHT22;18610;49.916;8.284;2023-06-22T03:37:29;20.90;99.90
32097;DHT22;18610;49.916;8.284;2023-06-22T03:39:56;20.80;99.90
32097;DHT22;18610;49.916;8.284;2023-06-22T03:42:22;20.80;99.90
32097;DHT22;18610;49.916;8.284;2023-06-22T03:44:51;20.80;99.90
32097;DHT22;18610;49.916;8.284;2023-06-22T03:47:18;20.80;99.90
32097;DHT22;18610;49.916;8.284;2023-06-22T03:49:44;20.80;99.90
32097;DHT22;18610;49.916;8.284;2023-06-22T03:52:11;20.80;99.90
32097;DHT22;18610;49.916;8.284;2023-06-22T03:54:38;20.80;99.90
32097;DHT22;18610;49.916;8.284;2023-06-22T03:57:05;20.80;99.90
32097;DHT22;18610;49.916;8.284;2023-06-22T03:59:31;20.80;99.90
32097;DHT22;18610;49.916;8.284;2023-06-22T04:02:00;20.80;99.90
32097;DHT22;18610;49.916;8.284;2023-06-22T04:04:26;20.80;99.90
32097;DHT22;18610;49.916;8.284;2023-06-22T04:06:53;20.70;99.90
32097;DHT22;18610;49.916;8.284;2023-06-22T04:09:20;20.80;99.90
32097;DHT22;18610;49.916;8.284;2023-06-22T04:11:48;20.70;99.90
32097;DHT22;18610;49.916;8.284;2023-06-22T04:14:14;20.80;99.90
32097;DHT22;18610;49.916;8.284;2023-06-22T04:16:41;20.70;99.90
32097;DHT22;18610;49.916;8.284;2023-06-22T04:19:09;20.80;99.90
32097;DHT22;18610;49.916;8.284;2023-06-22T04:21:41;20.80;99.90
32097;DHT22;18610;49.916;8.284;2023-06-22T04:24:08;20.80;99.90
32097;DHT22;18610;49.916;8.284;2023-06-22T04:26:34;20.90;99.90
32097;DHT22;18610;49.916;8.284;2023-06-22T04:29:03;20.90;99.90
32097;DHT22;18610;49.916;8.284;2023-06-22T04:31:31;21.00;99.90
32097;DHT22;18610;49.916;8.284;2023-06-22T04:34:02;21.00;99.90
32097;DHT22;18610;49.916;8.284;2023-06-22T04:36:33;21.00;99.90
32097;DHT22;18610;49.916;8.284;2023-06-22T04:39:04;21.00;99.90
32097;DHT22;18610;49.916;8.284;2023-06-22T04:41:31;21.00;99.90
32097;DHT22;18610;49.916;8.284;2023-06-22T04:44:08;21.10;99.90
32097;DHT22;18610;49.916;8.284;2023-06-22T04:46:36;21.10;99.90
32097;DHT22;18610;49.916;8.284;2023-06-22T04:49:07;21.10;99.90
32097;DHT22;18610;49.916;8.284;2023-06-22T04:51:42;21.20;99.90
32097;DHT22;18610;49.916;8.284;2023-06-22T04:54:09;21.20;99.90
32097;DHT22;18610;49.916;8.284;2023-06-22T04:56:36;21.10;99.90
32097;DHT22;18610;49.916;8.284;2023-06-22T04:59:06;21.10;99.90
32097;DHT22;18610;49.916;8.284;2023-06-22T05:01:33;21.20;99.90
32097;DHT22;18610;49.916;8.284;2023-06-22T05:04:00;21.20;99.90
32097;DHT22;18610;49.916;8.284;2023-06-22T05:06:28;21.20;99.90
32097;DHT22;18610;49.916;8.284;2023-06-22T05:08:57;21.20;99.90
32097;DHT22;18610;49.916;8.284;2023-06-22T05:11:24;21.20;99.90
32097;DHT22;18610;49.916;8.284;2023-06-22T05:13:51;21.20;99.90
32097;DHT22;18610;49.916;8.284;2023-06-22T05:16:17;21.30;99.90
32097;DHT22;18610;49.916;8.284;2023-06-22T05:18:50;21.40;99.90
32097;DHT22;18610;49.916;8.284;2023-06-22T05:21:17;21.50;99.90
32097;DHT22;18610;49.916;8.284;2023-06-22T05:23:44;21.60;99.90
32097;DHT22;18610;49.916;8.284;2023-06-22T05:26:12;21.70;99.90
32097;DHT22;18610;49.916;8.284;2023-06-22T05:28:39;21.90;99.90
32097;DHT22;18610;49.916;8.284;2023-06-22T05:31:05;21.90;99.90
32097;DHT22;18610;49.916;8.284;2023-06-22T05:33:32;22.10;99.90
32097;DHT22;18610;49.916;8.284;2023-06-22T05:35:59;22.20;99.90
32097;DHT22;18610;49.916;8.284;2023-06-22T05:38:25;22.30;99.90
32097;DHT22;18610;49.916;8.284;2023-06-22T05:40:52;22.40;99.90
32097;DHT22;18610;49.916;8.284;2023-06-22T05:43:20;22.50;99.90
32097;DHT22;18610;49.916;8.284;2023-06-22T05:45:47;22.60;99.90
32097;DHT22;18610;49.916;8.284;2023-06-22T05:48:14;22.70;99.90
32097;DHT22;18610;49.916;8.284;2023-06-22T05:50:40;22.80;99.90
32097;DHT22;18610;49.916;8.284;2023-06-22T05:53:07;22.90;99.90
32097;DHT22;18610;49.916;8.284;2023-06-22T05:55:34;23.00;99.90
32097;DHT22;18610;49.916;8.284;2023-06-22T05:58:01;23.10;99.90
32097;DHT22;18610;49.916;8.284;2023-06-22T06:00:29;23.20;99.90
32097;DHT22;18610;49.916;8.284;2023-06-22T06:02:56;23.30;99.90
32097;DHT22;18610;49.916;8.284;2023-06-22T06:05:28;23.40;99.90
32097;DHT22;18610;49.916;8.284;2023-06-22T06:07:55;23.50;99.90
32097;DHT22;18610;49.916;8.284;2023-06-22T06:10:22;23.60;99.90
32097;DHT22;18610;49.916;8.284;2023-06-22T06:12:48;23.70;99.90
32097;DHT22;18610;49.916;8.284;2023-06-22T06:15:15;23.80;99.90
32097;DHT22;18610;49.916;8.284;2023-06-22T06:17:47;23.90;99.90
32097;DHT22;18610;49.916;8.284;2023-06-22T06:20:14;24.00;99.90
32097;DHT22;18610;49.916;8.284;2023-06-22T06:22:41;24.10;99.90
32097;DHT22;18610;49.916;8.284;2023-06-22T06:25:09;24.20;99.90
32097;DHT22;18610;49.916;8.284;2023-06-22T06:27:42;24.30;99.90
32097;DHT22;18610;49.916;8.284;2023-06-22T06:30:10;24.40;99.90
32097;DHT22;18610;49.916;8.284;2023-06-22T06:32:37;24.50;99.90
32097;DHT22;18610;49.916;8.284;2023-06-22T06:35:07;24.50;99.90
32097;DHT22;18610;49.916;8.284;2023-06-22T06:37:36;24.60;99.90
32097;DHT22;18610;49.916;8.284;2023-06-22T06:40:04;24.70;99.90
32097;DHT22;18610;49.916;8.284;2023-06-22T06:42:33;24.80;99.90
32097;DHT22;18610;49.916;8.284;2023-06-22T06:45:00;24.90;99.90
32097;DHT22;18610;49.916;8.284;2023-06-22T06:47:27;25.00;99.90
32097;DHT22;18610;49.916;8.284;2023-06-22T06:49:54;25.00;99.90
32097;DHT22;18610;49.916;8.284;2023-06-22T06:52:22;25.10;99.90
32097;DHT22;18610;49.916;8.284;2023-06-22T06:54:49;25.10;99.90
32097;DHT22;18610;49.916;8.284;2023-06-22T06:57:17;25.20;99.90
32097;DHT22;18610;49.916;8.284;2023-06-22T06:59:44;25.20;99.90
32097;DHT22;18610;49.916;8.284;2023-06-22T07:02:11;25.20;99.90
32097;DHT22;18610;49.916;8.284;2023-06-22T07:04:37;25.30;99.90
32097;DHT22;18610;49.916;8.284;2023-06-22T07:07:04;25.30;99.90
32097;DHT22;18610;49.916;8.284;2023-06-22T07:09:33;25.30;99.90
32097;DHT22;18610;49.916;8.284;2023-06-22T07:12:00;25.40;99.90
32097;DHT22;18610;49.916;8.284;2023-06-22T07:14:26;25.50;99.90
32097;DHT22;18610;49.916;8.284;2023-06-22T07:16:53;25.50;99.90
32097;DHT22;18610;49.916;8.284;2023-06-22T07:19:24;25.60;99.90
32097;DHT22;18610;49.916;8.284;2023-06-22T07:21:51;25.70;99.90
32097;DHT22;18610;49.916;8.284;2023-06-22T07:24:19;25.90;99.90
32097;DHT22;18610;49.916;8.284;2023-06-22T07:26:47;26.00;99.90
32097;DHT22;18610;49.916;8.284;2023-06-22T07:29:16;26.10;99.90
32097;DHT22;18610;49.916;8.284;2023-06-22T07:31:43;26.30;99.90
32097;DHT22;18610;49.916;8.284;2023-06-22T07:34:10;26.40;99.90
32097;DHT22;18610;49.916;8.284;2023-06-22T07:36:37;26.50;99.90
32097;DHT22;18610;49.916;8.284;2023-06-22T07:39:04;26.60;99.90
32097;DHT22;18610;49.916;8.284;2023-06-22T07:41:32;26.80;99.90
32097;DHT22;18610;49.916;8.284;2023-06-22T07:44:00;26.90;99.90
32097;DHT22;18610;49.916;8.284;2023-06-22T07:46:27;27.00;99.90
32097;DHT22;18610;49.916;8.284;2023-06-22T07:48:55;27.10;99.90
32097;DHT22;18610;49.916;8.284;2023-06-22T07:51:22;27.20;99.90
32097;DHT22;18610;49.916;8.284;2023-06-22T07:53:49;27.20;99.90
32097;DHT22;18610;49.916;8.284;2023-06-22T07:56:16;27.30;99.90
32097;DHT22;18610;49.916;8.284;2023-06-22T07:58:44;27.40;99.90
32097;DHT22;18610;49.916;8.284;2023-06-22T08:01:13;27.50;99.90
32097;DHT22;18610;49.916;8.284;2023-06-22T08:03:40;27.50;99.90
32097;DHT22;18610;49.916;8.284;2023-06-22T08:06:07;27.60;99.90
32097;DHT22;18610;49.916;8.284;2023-06-22T08:08:35;27.60;99.90
32097;DHT22;18610;49.916;8.284;2023-06-22T08:11:02;27.70;99.90
32097;DHT22;18610;49.916;8.284;2023-06-22T08:13:29;27.70;99.90
32097;DHT22;18610;49.916;8.284;2023-06-22T08:15:56;27.70;99.90
32097;DHT22;18610;49.916;8.284;2023-06-22T08:18:24;27.80;99.90
32097;DHT22;18610;49.916;8.284;2023-06-22T08:20:51;27.90;99.90
32097;DHT22;18610;49.916;8.284;2023-06-22T08:23:17;27.90;99.90
32097;DHT22;18610;49.916;8.284;2023-06-22T08:25:45;28.00;99.90
32097;DHT22;18610;49.916;8.284;2023-06-22T08:28:13;28.10;99.90
32097;DHT22;18610;49.916;8.284;2023-06-22T08:30:40;28.20;99.90
32097;DHT22;18610;49.916;8.284;2023-06-22T08:33:07;28.30;99.90
32097;DHT22;18610;49.916;8.284;2023-06-22T08:35:35;28.30;99.90
32097;DHT22;18610;49.916;8.284;2023-06-22T08:38:01;28.40;99.90
32097;DHT22;18610;49.916;8.284;2023-06-22T08:40:28;28.50;99.90
32097;DHT22;18610;49.916;8.284;2023-06-22T08:42:55;28.70;99.90
32097;DHT22;18610;49.916;8.284;2023-06-22T08:45:22;28.80;99.90
32097;DHT22;18610;49.916;8.284;2023-06-22T08:47:49;28.90;99.90
32097;DHT22;18610;49.916;8.284;2023-06-22T08:50:16;29.00;99.90
32097;DHT22;18610;49.916;8.284;2023-06-22T08:52:44;29.20;99.90
32097;DHT22;18610;49.916;8.284;2023-06-22T08:55:11;29.30;99.80
32097;DHT22;18610;49.916;8.284;2023-06-22T08:57:38;29.40;99.50
32097;DHT22;18610;49.916;8.284;2023-06-22T09:00:06;29.40;99.00
32097;DHT22;18610;49.916;8.284;2023-06-22T09:02:41;29.40;98.90
32097;DHT22;18610;49.916;8.284;2023-06-22T09:05:08;29.50;98.80
32097;DHT22;18610;49.916;8.284;2023-06-22T09:07:35;29.60;98.50
32097;DHT22;18610;49.916;8.284;2023-06-22T09:10:03;29.70;98.80
32097;DHT22;18610;49.916;8.284;2023-06-22T09:12:31;29.90;98.60
32097;DHT22;18610;49.916;8.284;2023-06-22T09:14:58;30.10;97.70
32097;DHT22;18610;49.916;8.284;2023-06-22T09:17:26;30.30;96.90
32097;DHT22;18610;49.916;8.284;2023-06-22T09:19:53;30.40;96.50
32097;DHT22;18610;49.916;8.284;2023-06-22T09:22:20;30.50;96.20
32097;DHT22;18610;49.916;8.284;2023-06-22T09:24:47;30.60;96.10
32097;DHT22;18610;49.916;8.284;2023-06-22T09:27:15;30.70;95.30
32097;DHT22;18610;49.916;8.284;2023-06-22T09:29:42;30.60;94.60
32097;DHT22;18610;49.916;8.284;2023-06-22T09:32:09;30.70;94.80
32097;DHT22;18610;49.916;8.284;2023-06-22T09:34:36;30.80;95.00
32097;DHT22;18610;49.916;8.284;2023-06-22T09:37:02;30.80;94.40
32097;DHT22;18610;49.916;8.284;2023-06-22T09:39:29;30.80;94.20
32097;DHT22;18610;49.916;8.284;2023-06-22T09:41:57;30.60;94.10
32097;DHT22;18610;49.916;8.284;2023-06-22T09:44:26;30.50;94.10
32097;DHT22;18610;49.916;8.284;2023-06-22T09:46:52;30.40;94.50
32097;DHT22;18610;49.916;8.284;2023-06-22T09:49:19;30.40;94.60
32097;DHT22;18610;49.916;8.284;2023-06-22T09:51:46;30.40;94.40
32097;DHT22;18610;49.916;8.284;2023-06-22T09:54:12;30.50;94.60
32097;DHT22;18610;49.916;8.284;2023-06-22T09:56:39;30.50;93.70
32097;DHT22;18610;49.916;8.284;2023-06-22T09:59:06;30.60;94.10
32097;DHT22;18610;49.916;8.284;2023-06-22T10:01:34;30.80;94.20
32097;DHT22;18610;49.916;8.284;2023-06-22T10:04:02;30.80;93.60
32097;DHT22;18610;49.916;8.284;2023-06-22T10:06:29;30.90;93.20
32097;DHT22;18610;49.916;8.284;2023-06-22T10:08:56;31.00;93.30
32097;DHT22;18610;49.916;8.284;2023-06-22T10:11:22;31.10;93.10
32097;DHT22;18610;49.916;8.284;2023-06-22T10:13:54;31.30;92.50
32097;DHT22;18610;49.916;8.284;2023-06-22T10:16:21;31.40;91.50
32097;DHT22;18610;49.916;8.284;2023-06-22T10:18:49;31.50;91.20
32097;DHT22;18610;49.916;8.284;2023-06-22T10:21:15;31.50;90.80
32097;DHT22;18610;49.916;8.284;2023-06-22T10:23:42;31.70;90.90
32097;DHT22;18610;49.916;8.284;2023-06-22T10:26:09;31.80;90.90
32097;DHT22;18610;49.916;8.284;2023-06-22T10:28:35;32.00;91.40
32097;DHT22;18610;49.916;8.284;2023-06-22T10:31:02;32.20;91.00
32097;DHT22;18610;49.916;8.284;2023-06-22T10:33:29;32.30;90.20
32097;DHT22;18610;49.916;8.284;2023-06-22T10:35:57;32.50;90.00
32097;DHT22;18610;49.916;8.284;2023-06-22T10:38:23;32.60;88.40
32097;DHT22;18610;49.916;8.284;2023-06-22T10:40:50;32.80;87.50
32097;DHT22;18610;49.916;8.284;2023-06-22T10:43:17;32.90;86.90
32097;DHT22;18610;49.916;8.284;2023-06-22T10:45:44;33.00;85.50
32097;DHT22;18610;49.916;8.284;2023-06-22T10:48:12;33.10;84.10
32097;DHT22;18610;49.916;8.284;2023-06-22T10:50:38;33.10;83.70
32097;DHT22;18610;49.916;8.284;2023-06-22T10:53:06;33.20;83.60
32097;DHT22;18610;49.916;8.284;2023-06-22T10:55:33;33.40;83.40
32097;DHT22;18610;49.916;8.284;2023-06-22T10:57:59;33.60;80.70
32097;DHT22;18610;49.916;8.284;2023-06-22T11:00:26;33.60;79.70
32097;DHT22;18610;49.916;8.284;2023-06-22T11:02:53;33.70;78.90
32097;DHT22;18610;49.916;8.284;2023-06-22T11:05:19;33.70;78.20
32097;DHT22;18610;49.916;8.284;2023-06-22T11:07:46;33.60;78.00
32097;DHT22;18610;49.916;8.284;2023-06-22T11:10:16;33.40;77.20
32097;DHT22;18610;49.916;8.284;2023-06-22T11:12:43;33.30;76.60
32097;DHT22;18610;49.916;8.284;2023-06-22T11:15:10;33.30;76.70
32097;DHT22;18610;49.916;8.284;2023-06-22T11:17:36;33.30;77.40
32097;DHT22;18610;49.916;8.284;2023-06-22T11:20:04;33.40;75.80
32097;DHT22;18610;49.916;8.284;2023-06-22T11:22:36;33.40;76.40
32097;DHT22;18610;49.916;8.284;2023-06-22T11:25:03;33.60;76.50
32097;DHT22;18610;49.916;8.284;2023-06-22T11:27:31;33.70;75.50
32097;DHT22;18610;49.916;8.284;2023-06-22T11:29:58;33.80;75.90
32097;DHT22;18610;49.916;8.284;2023-06-22T11:32:25;33.80;74.30
32097;DHT22;18610;49.916;8.284;2023-06-22T11:34:51;33.80;75.30
32097;DHT22;18610;49.916;8.284;2023-06-22T11:37:18;33.70;75.30
32097;DHT22;18610;49.916;8.284;2023-06-22T11:39:45;33.70;74.40
32097;DHT22;18610;49.916;8.284;2023-06-22T11:42:11;33.80;74.60
32097;DHT22;18610;49.916;8.284;2023-06-22T11:44:39;33.90;74.40
32097;DHT22;18610;49.916;8.284;2023-06-22T11:47:06;34.10;73.30
32097;DHT22;18610;49.916;8.284;2023-06-22T11:49:33;34.30;74.80
32097;DHT22;18610;49.916;8.284;2023-06-22T11:51:59;34.40;74.00
32097;DHT22;18610;49.916;8.284;2023-06-22T11:54:26;34.50;73.70
32097;DHT22;18610;49.916;8.284;2023-06-22T11:56:53;34.60;73.20
32097;DHT22;18610;49.916;8.284;2023-06-22T11:59:19;34.70;72.00
32097;DHT22;18610;49.916;8.284;2023-06-22T12:01:49;34.90;70.70
32097;DHT22;18610;49.916;8.284;2023-06-22T12:04:16;35.00;70.30
32097;DHT22;18610;49.916;8.284;2023-06-22T12:06:43;35.10;69.90
32097;DHT22;18610;49.916;8.284;2023-06-22T12:09:10;35.20;69.50
32097;DHT22;18610;49.916;8.284;2023-06-22T12:11:39;35.40;69.20
32097;DHT22;18610;49.916;8.284;2023-06-22T12:14:05;35.40;68.20
32097;DHT22;18610;49.916;8.284;2023-06-22T12:16:32;35.60;68.90
32097;DHT22;18610;49.916;8.284;2023-06-22T12:19:00;35.70;67.00
32097;DHT22;18610;49.916;8.284;2023-06-22T12:21:27;35.90;67.20
32097;DHT22;18610;49.916;8.284;2023-06-22T12:23:54;35.90;66.70
32097;DHT22;18610;49.916;8.284;2023-06-22T12:26:21;36.00;66.60
32097;DHT22;18610;49.916;8.284;2023-06-22T12:28:48;36.10;66.00
32097;DHT22;18610;49.916;8.284;2023-06-22T12:31:15;36.10;66.00
32097;DHT22;18610;49.916;8.284;2023-06-22T12:33:41;35.90;64.00
32097;DHT22;18610;49.916;8.284;2023-06-22T12:36:09;35.60;65.60
32097;DHT22;18610;49.916;8.284;2023-06-22T12:38:36;35.40;66.90
32097;DHT22;18610;49.916;8.284;2023-06-22T12:41:03;35.30;67.60
32097;DHT22;18610;49.916;8.284;2023-06-22T12:43:29;35.30;67.00
32097;DHT22;18610;49.916;8.284;2023-06-22T12:45:56;35.30;66.20
32097;DHT22;18610;49.916;8.284;2023-06-22T12:48:23;35.40;65.60
32097;DHT22;18610;49.916;8.284;2023-06-22T12:50:50;35.20;67.20
32097;DHT22;18610;49.916;8.284;2023-06-22T12:53:18;35.10;66.40
32097;DHT22;18610;49.916;8.284;2023-06-22T12:55:45;35.10;66.20
32097;DHT22;18610;49.916;8.284;2023-06-22T12:58:12;35.00;67.00
32097;DHT22;18610;49.916;8.284;2023-06-22T13:00:39;35.00;66.60
32097;DHT22;18610;49.916;8.284;2023-06-22T13:03:08;35.00;66.10
32097;DHT22;18610;49.916;8.284;2023-06-22T13:05:38;35.10;67.50
32097;DHT22;18610;49.916;8.284;2023-06-22T13:08:05;35.10;66.80
32097;DHT22;18610;49.916;8.284;2023-06-22T13:10:33;35.10;66.20
32097;DHT22;18610;49.916;8.284;2023-06-22T13:13:00;35.00;66.50
32097;DHT22;18610;49.916;8.284;2023-06-22T13:15:27;34.90;67.80
32097;DHT22;18610;49.916;8.284;2023-06-22T13:17:54;34.80;67.90
32097;DHT22;18610;49.916;8.284;2023-06-22T13:20:21;34.60;68.80
32097;DHT22;18610;49.916;8.284;2023-06-22T13:22:48;34.50;69.10
32097;DHT22;18610;49.916;8.284;2023-06-22T13:25:14;34.40;70.00
32097;DHT22;18610;49.916;8.284;2023-06-22T13:27:45;34.40;69.70
32097;DHT22;18610;49.916;8.284;2023-06-22T13:30:13;34.60;69.30
32097;DHT22;18610;49.916;8.284;2023-06-22T13:32:40;34.80;68.40
32097;DHT22;18610;49.916;8.284;2023-06-22T13:35:08;35.10;61.90
32097;DHT22;18610;49.916;8.284;2023-06-22T13:37:35;35.20;61.30
32097;DHT22;18610;49.916;8.284;2023-06-22T13:40:02;35.30;60.20
32097;DHT22;18610;49.916;8.284;2023-06-22T13:42:32;35.30;59.60
32097;DHT22;18610;49.916;8.284;2023-06-22T13:45:00;35.40;59.80
32097;DHT22;18610;49.916;8.284;2023-06-22T13:47:27;35.40;59.30
32097;DHT22;18610;49.916;8.284;2023-06-22T13:49:54;35.30;60.00
32097;DHT22;18610;49.916;8.284;2023-06-22T13:52:20;35.00;58.30
32097;DHT22;18610;49.916;8.284;2023-06-22T13:54:47;34.60;58.80
32097;DHT22;18610;49.916;8.284;2023-06-22T13:57:14;34.20;60.30
32097;DHT22;18610;49.916;8.284;2023-06-22T13:59:41;34.00;60.20
32097;DHT22;18610;49.916;8.284;2023-06-22T14:02:09;33.90;60.70
32097;DHT22;18610;49.916;8.284;2023-06-22T14:04:36;33.80;60.70
32097;DHT22;18610;49.916;8.284;2023-06-22T14:07:03;33.70;60.30
32097;DHT22;18610;49.916;8.284;2023-06-22T14:09:29;33.50;60.00
32097;DHT22;18610;49.916;8.284;2023-06-22T14:11:56;33.30;61.80
32097;DHT22;18610;49.916;8.284;2023-06-22T14:14:23;33.20;62.80
32097;DHT22;18610;49.916;8.284;2023-06-22T14:16:49;33.00;64.60
32097;DHT22;18610;49.916;8.284;2023-06-22T14:19:18;32.90;64.10
32097;DHT22;18610;49.916;8.284;2023-06-22T14:21:45;32.70;65.50
32097;DHT22;18610;49.916;8.284;2023-06-22T14:24:11;32.60;66.30
32097;DHT22;18610;49.916;8.284;2023-06-22T14:26:38;32.50;66.30
32097;DHT22;18610;49.916;8.284;2023-06-22T14:29:05;32.50;67.80
32097;DHT22;18610;49.916;8.284;2023-06-22T14:31:31;32.50;68.60
32097;DHT22;18610;49.916;8.284;2023-06-22T14:34:00;32.50;66.80
32097;DHT22;18610;49.916;8.284;2023-06-22T14:36:29;32.50;66.20
32097;DHT22;18610;49.916;8.284;2023-06-22T14:38:56;32.40;66.70
32097;DHT22;18610;49.916;8.284;2023-06-22T14:41:22;32.20;67.20
32097;DHT22;18610;49.916;8.284;2023-06-22T14:43:50;32.10;67.80
32097;DHT22;18610;49.916;8.284;2023-06-22T14:46:17;32.00;68.80
32097;DHT22;18610;49.916;8.284;2023-06-22T14:48:44;31.80;69.60
32097;DHT22;18610;49.916;8.284;2023-06-22T14:51:12;31.70;69.60
32097;DHT22;18610;49.916;8.284;2023-06-22T14:53:40;31.60;69.90
32097;DHT22;18610;49.916;8.284;2023-06-22T14:56:06;31.40;70.80
32097;DHT22;18610;49.916;8.284;2023-06-22T14:58:33;31.20;71.80
32097;DHT22;18610;49.916;8.284;2023-06-22T15:01:01;31.10;72.00
32097;DHT22;18610;49.916;8.284;2023-06-22T15:03:29;31.00;79.80
32097;DHT22;18610;49.916;8.284;2023-06-22T15:05:57;30.70;84.80
32097;DHT22;18610;49.916;8.284;2023-06-22T15:08:24;30.50;85.50
32097;DHT22;18610;49.916;8.284;2023-06-22T15:10:53;30.30;88.50
32097;DHT22;18610;49.916;8.284;2023-06-22T15:13:20;30.30;89.80
32097;DHT22;18610;49.916;8.284;2023-06-22T15:15:47;30.10;90.60
32097;DHT22;18610;49.916;8.284;2023-06-22T15:18:15;29.90;91.70
32097;DHT22;18610;49.916;8.284;2023-06-22T15:20:42;29.80;91.00
32097;DHT22;18610;49.916;8.284;2023-06-22T15:23:10;29.80;91.50
32097;DHT22;18610;49.916;8.284;2023-06-22T15:25:36;29.70;90.80
32097;DHT22;18610;49.916;8.284;2023-06-22T15:28:04;29.70;91.40
32097;DHT22;18610;49.916;8.284;2023-06-22T15:30:31;29.70;89.80
32097;DHT22;18610;49.916;8.284;2023-06-22T15:32:58;29.60;88.90